createdAt,value
2022-10-25T00:01:59.974Z,88.72
2022-10-25T00:04:57.524Z,88.75
2022-10-25T00:07:54.993Z,88.75
2022-10-25T00:10:52.423Z,88.79
2022-10-25T00:13:50.121Z,88.75
2022-10-25T00:16:47.582Z,88.71
2022-10-25T00:19:45.056Z,88.67
2022-10-25T00:22:42.487Z,88.66
2022-10-25T00:25:39.933Z,88.64
2022-10-25T00:28:37.370Z,88.61
2022-10-25T00:31:34.798Z,88.61
2022-10-25T00:34:32.250Z,88.58
2022-10-25T00:37:29.674Z,88.58
2022-10-25T00:40:27.094Z,88.58
2022-10-25T00:43:24.538Z,88.56
2022-10-25T00:46:23.343Z,88.61
2022-10-25T00:49:21.482Z,88.60
2022-10-25T00:52:19.020Z,88.62
2022-10-25T00:55:16.466Z,88.68
2022-10-25T00:58:13.900Z,88.68
2022-10-25T01:01:11.428Z,88.71
2022-10-25T01:04:08.888Z,88.79
2022-10-25T01:07:06.313Z,88.78
2022-10-25T01:10:03.753Z,88.84
2022-10-25T01:13:01.305Z,88.95
2022-10-25T01:15:58.730Z,89.00
2022-10-25T01:18:56.528Z,89.05
2022-10-25T01:21:53.973Z,89.09
2022-10-25T01:24:51.414Z,89.17
2022-10-25T01:27:48.896Z,89.26
2022-10-25T01:30:46.393Z,89.34
2022-10-25T01:33:43.840Z,89.42
2022-10-25T01:36:41.291Z,89.48
2022-10-25T01:39:42.819Z,89.54
2022-10-25T01:42:44.028Z,89.54
2022-10-25T01:45:44.896Z,89.54
2022-10-25T01:48:45.854Z,89.49
2022-10-25T01:51:46.781Z,89.45
2022-10-25T01:54:52.098Z,89.38
2022-10-25T01:57:53.036Z,89.23
2022-10-25T02:00:54.033Z,89.15
2022-10-25T02:03:55.106Z,89.09
2022-10-25T02:06:55.960Z,89.04
2022-10-25T02:09:57.065Z,88.98
2022-10-25T02:12:57.722Z,88.97
2022-10-25T02:15:58.153Z,88.95
2022-10-25T02:18:55.608Z,88.91
2022-10-25T02:21:53.091Z,88.88
2022-10-25T02:24:54.186Z,88.67
2022-10-25T02:27:55.237Z,88.55
2022-10-25T02:30:56.329Z,88.54
2022-10-25T02:33:57.153Z,88.53
2022-10-25T02:36:58.028Z,88.53
2022-10-25T02:39:59.009Z,88.52
2022-10-25T02:43:00.101Z,88.51
2022-10-25T02:46:01.199Z,88.51
2022-10-25T02:49:02.248Z,88.50
2022-10-25T02:52:02.681Z,88.51
2022-10-25T02:55:03.749Z,88.50
2022-10-25T02:58:04.781Z,88.44
2022-10-25T03:01:05.680Z,88.30
2022-10-25T03:04:06.679Z,88.17
2022-10-25T03:07:07.484Z,88.10
2022-10-25T03:10:08.509Z,88.07
2022-10-25T03:13:09.603Z,88.02
2022-10-25T03:16:10.668Z,87.98
2022-10-25T03:19:08.113Z,87.96
2022-10-25T03:22:09.080Z,87.91
2022-10-25T03:28:10.376Z,87.64
2022-10-25T03:31:11.172Z,87.29
2022-10-25T03:34:12.157Z,87.23
2022-10-25T03:37:13.060Z,87.08
2022-10-25T03:40:15.829Z,86.95
2022-10-25T03:43:16.629Z,86.78
2022-10-25T03:46:16.917Z,86.82
2022-10-25T03:49:17.466Z,86.92
2022-10-25T03:52:18.325Z,86.97
2022-10-25T03:55:19.111Z,86.84
2022-10-25T03:58:19.781Z,86.76
2022-10-25T04:01:20.678Z,86.59
2022-10-25T04:04:21.692Z,86.45
2022-10-25T04:07:22.475Z,86.35
2022-10-25T04:10:25.183Z,86.22
2022-10-25T04:13:26.497Z,86.14
2022-10-25T04:16:27.334Z,86.04
2022-10-25T04:19:27.981Z,85.90
2022-10-25T04:22:30.936Z,85.79
2022-10-25T04:25:31.813Z,85.72
2022-10-25T04:28:32.711Z,85.62
2022-10-25T04:31:33.814Z,85.36
2022-10-25T04:34:34.972Z,85.11
2022-10-25T04:37:36.025Z,84.55
2022-10-25T04:40:37.017Z,83.98
2022-10-25T04:43:38.081Z,83.46
2022-10-25T04:46:38.951Z,83.34
2022-10-25T04:49:39.793Z,82.86
2022-10-25T04:52:40.714Z,82.72
2022-10-25T04:55:41.537Z,82.75
2022-10-25T04:58:42.522Z,82.49
2022-10-25T05:01:43.629Z,82.16
2022-10-25T05:04:44.385Z,82.14
2022-10-25T05:07:45.190Z,81.54
2022-10-25T05:10:45.625Z,80.79
2022-10-25T05:13:46.653Z,81.01
2022-10-25T05:16:47.700Z,80.61
2022-10-25T05:19:47.926Z,80.35
2022-10-25T05:22:48.869Z,79.83
2022-10-25T05:25:49.848Z,80.07
2022-10-25T05:28:50.776Z,79.86
2022-10-25T05:31:51.751Z,79.46
2022-10-25T05:34:52.545Z,79.53
2022-10-25T05:37:53.130Z,79.17
2022-10-25T05:40:54.250Z,78.85
2022-10-25T05:43:55.071Z,78.79
2022-10-25T05:46:57.137Z,79.19
2022-10-25T05:49:58.122Z,79.01
2022-10-25T05:52:59.092Z,78.81
2022-10-25T05:56:00.124Z,78.79
2022-10-25T05:59:06.461Z,78.76
2022-10-25T06:02:07.383Z,78.68
2022-10-25T06:05:08.221Z,78.42
2022-10-25T06:08:09.124Z,78.37
2022-10-25T06:11:10.152Z,78.20
2022-10-25T06:14:11.026Z,77.94
2022-10-25T06:17:11.811Z,77.56
2022-10-25T06:20:12.716Z,77.41
2022-10-25T06:23:13.578Z,77.47
2022-10-25T06:26:14.982Z,77.49
2022-10-25T06:29:15.980Z,77.01
2022-10-25T06:32:13.432Z,76.88
2022-10-25T06:35:10.893Z,76.49
2022-10-25T06:38:08.322Z,76.57
2022-10-25T06:41:05.782Z,75.79
2022-10-25T06:44:06.493Z,75.78
2022-10-25T06:47:16.930Z,75.45
2022-10-25T06:50:15.397Z,75.11
2022-10-25T06:53:12.825Z,75.06
2022-10-25T06:56:14.184Z,74.97
2022-10-25T06:59:12.289Z,74.72
2022-10-25T07:02:09.917Z,74.26
2022-10-25T07:05:07.532Z,74.15
2022-10-25T07:08:04.977Z,73.54
2022-10-25T07:11:02.442Z,73.47
2022-10-25T07:13:59.874Z,72.97
2022-10-25T07:16:57.309Z,72.78
2022-10-25T07:19:54.746Z,72.74
2022-10-25T07:22:53.750Z,72.66
2022-10-25T07:25:54.028Z,72.51
2022-10-25T07:28:51.478Z,71.89
2022-10-25T07:31:48.908Z,71.71
2022-10-25T07:34:49.889Z,71.35
2022-10-25T07:37:50.626Z,71.44
2022-10-25T07:40:51.584Z,70.66
2022-10-25T07:43:52.428Z,70.38
2022-10-25T07:46:53.841Z,70.30
2022-10-25T07:49:54.345Z,69.77
2022-10-25T07:52:56.836Z,69.30
2022-10-25T07:56:00.772Z,69.77
2022-10-25T07:59:01.869Z,69.90
2022-10-25T08:02:02.752Z,69.39
2022-10-25T08:05:03.838Z,69.05
2022-10-25T08:08:06.963Z,68.94
2022-10-25T08:11:10.151Z,69.27
2022-10-25T08:14:07.604Z,69.08
2022-10-25T08:17:09.653Z,68.55
2022-10-25T08:20:10.706Z,68.27
2022-10-25T08:23:10.944Z,68.38
2022-10-25T08:26:12.055Z,67.89
2022-10-25T08:29:12.763Z,68.29
2022-10-25T08:32:13.556Z,67.92
2022-10-25T08:35:14.257Z,67.63
2022-10-25T08:38:15.139Z,67.17
2022-10-25T08:41:17.540Z,67.30
2022-10-25T08:44:18.524Z,67.30
2022-10-25T08:58:47.784Z,66.45
2022-10-25T09:01:11.805Z,66.40
2022-10-25T09:04:13.428Z,66.13
2022-10-25T09:07:13.017Z,65.72
2022-10-25T09:10:13.204Z,65.30
2022-10-25T09:13:13.119Z,64.65
2022-10-25T09:16:12.630Z,64.27
2022-10-25T09:19:11.986Z,63.88
2022-10-25T09:22:11.068Z,63.34
2022-10-25T09:25:10.334Z,63.72
2022-10-25T09:28:09.832Z,63.02
2022-10-25T09:31:14.160Z,62.41
2022-10-25T09:34:13.699Z,62.38
2022-10-25T09:37:12.865Z,61.60
2022-10-25T09:40:12.256Z,61.60
2022-10-25T09:43:15.587Z,60.75
2022-10-25T09:46:15.070Z,60.36
2022-10-25T09:49:14.265Z,58.11
2022-10-25T09:52:13.338Z,55.77
2022-10-25T09:55:12.868Z,53.98
2022-10-25T09:58:12.163Z,52.99
2022-10-25T10:01:11.264Z,51.26
2022-10-25T10:04:11.433Z,49.68
2022-10-25T10:07:08.934Z,49.36
2022-10-25T10:10:06.507Z,46.42
2022-10-25T10:13:04.023Z,44.69
2022-10-25T10:16:01.489Z,43.88
2022-10-25T10:19:00.992Z,43.10
2022-10-25T10:21:58.591Z,42.65
2022-10-25T10:24:56.106Z,43.03
2022-10-25T10:27:53.548Z,41.65
2022-10-25T10:30:51.090Z,42.27
2022-10-25T10:33:50.143Z,41.95
2022-10-25T10:36:52.945Z,42.56
2022-10-25T10:39:56.310Z,43.20
2022-10-25T10:43:00.041Z,44.30
2022-10-25T10:45:57.620Z,42.83
2022-10-25T10:48:55.108Z,42.22
2022-10-25T10:51:59.622Z,42.99
2022-10-25T10:54:57.189Z,41.61
2022-10-25T10:57:54.667Z,42.29
2022-10-25T11:00:59.052Z,40.98
2022-10-25T11:03:59.969Z,41.91
2022-10-25T11:17:35.097Z,40.32
2022-10-25T11:24:04.736Z,39.92
2022-10-25T11:27:02.253Z,38.24
2022-10-25T11:30:02.268Z,38.11
2022-10-25T11:33:01.739Z,36.38
2022-10-25T11:35:59.929Z,36.98
2022-10-25T11:38:58.357Z,37.00
2022-10-25T11:41:55.825Z,36.84
2022-10-25T11:44:53.296Z,36.72
2022-10-25T11:47:50.724Z,36.67
2022-10-25T11:50:49.425Z,36.36
2022-10-25T11:53:46.884Z,35.70
2022-10-25T11:56:44.321Z,36.56
2022-10-25T11:59:41.789Z,36.01
2022-10-25T12:02:39.269Z,37.31
2022-10-25T12:05:36.840Z,38.24
2022-10-25T12:08:34.312Z,38.67
2022-10-25T12:11:31.884Z,39.86
2022-10-25T12:14:29.326Z,40.65
2022-10-25T12:17:26.775Z,41.26
2022-10-25T12:20:24.376Z,41.49
2022-10-25T12:23:21.884Z,42.04
2022-10-25T12:26:19.338Z,42.73
2022-10-25T12:29:16.768Z,43.14
2022-10-25T12:32:14.218Z,43.66
2022-10-25T12:35:11.671Z,43.90
2022-10-25T12:38:09.398Z,44.55
2022-10-25T12:41:06.973Z,45.00
2022-10-25T12:44:04.565Z,45.29
2022-10-25T12:47:01.989Z,45.67
2022-10-25T12:49:59.400Z,45.88
2022-10-25T12:52:56.845Z,46.09
2022-10-25T12:55:54.323Z,46.54
2022-10-25T12:58:55.141Z,46.83
2022-10-25T13:01:56.617Z,47.03
2022-10-25T13:04:57.716Z,47.39
2022-10-25T13:07:58.366Z,47.86
2022-10-25T13:11:06.255Z,47.99
2022-10-25T13:14:06.943Z,48.30
2022-10-25T13:17:06.732Z,48.74
2022-10-25T13:20:07.830Z,48.94
2022-10-25T13:23:10.679Z,49.20
2022-10-25T13:26:11.364Z,49.27
2022-10-25T13:29:12.089Z,49.48
2022-10-25T13:32:13.367Z,49.60
2022-10-25T13:35:15.006Z,49.74
2022-10-25T13:38:15.984Z,49.82
2022-10-25T13:41:17.045Z,49.77
2022-10-25T13:44:17.279Z,49.98
2022-10-25T13:47:18.056Z,50.23
2022-10-25T13:50:19.013Z,50.37
2022-10-25T13:53:19.826Z,50.29
2022-10-25T13:56:20.527Z,50.64
2022-10-25T13:59:24.537Z,50.71
2022-10-25T14:02:26.046Z,50.63
2022-10-25T14:05:26.562Z,50.75
2022-10-25T14:08:26.264Z,50.63
2022-10-25T14:11:27.438Z,50.82
2022-10-25T14:14:28.362Z,50.96
2022-10-25T14:17:29.266Z,50.93
2022-10-25T14:21:23.651Z,51.14
2022-10-25T14:24:26.854Z,51.42
2022-10-25T14:27:27.895Z,51.56
2022-10-25T14:30:28.450Z,51.74
2022-10-25T14:33:31.070Z,51.94
2022-10-25T14:36:31.308Z,52.11
2022-10-25T14:39:52.348Z,52.27
2022-10-25T14:42:53.343Z,52.42
2022-10-25T14:45:53.727Z,52.72
2022-10-25T14:48:54.465Z,52.87
2022-10-25T14:51:55.665Z,53.04
2022-10-25T14:54:56.652Z,53.20
2022-10-25T14:57:57.312Z,53.51
2022-10-25T15:00:58.530Z,53.83
2022-10-25T15:03:59.213Z,54.02
2022-10-25T15:06:59.836Z,54.17
2022-10-25T15:10:00.618Z,54.46
2022-10-25T15:13:02.365Z,54.73
2022-10-25T15:16:03.064Z,54.99
2022-10-25T15:19:03.665Z,54.85
2022-10-25T15:22:04.604Z,55.56
2022-10-25T15:25:05.653Z,56.13
2022-10-25T15:28:06.587Z,56.39
2022-10-25T15:31:13.506Z,56.69
2022-10-25T15:34:17.263Z,56.94
2022-10-25T15:37:18.355Z,57.34
2022-10-25T15:40:19.389Z,57.57
2022-10-25T15:43:20.404Z,57.77
2022-10-25T15:46:21.244Z,58.11
2022-10-25T15:49:22.214Z,58.46
2022-10-25T15:52:23.012Z,58.75
2022-10-25T15:55:23.275Z,58.99
2022-10-25T15:58:24.180Z,59.32
2022-10-25T16:01:25.372Z,59.60
2022-10-25T16:04:26.409Z,59.86
2022-10-25T16:07:27.515Z,60.24
2022-10-25T16:10:28.989Z,60.46
2022-10-25T16:13:29.883Z,60.78
2022-10-25T16:16:45.857Z,61.09
2022-10-25T16:19:47.114Z,61.22
2022-10-25T16:22:48.758Z,61.52
2022-10-25T16:25:50.083Z,61.72
2022-10-25T16:28:50.746Z,62.24
2022-10-25T16:31:53.140Z,62.59
2022-10-25T16:34:54.225Z,62.89
2022-10-25T16:37:55.226Z,63.04
2022-10-25T16:40:55.767Z,63.27
2022-10-25T16:43:56.846Z,63.41
2022-10-25T16:46:58.443Z,63.55
2022-10-25T16:50:00.132Z,63.51
2022-10-25T16:53:01.276Z,63.66
2022-10-25T16:56:02.689Z,63.20
2022-10-25T16:59:04.114Z,63.88
2022-10-25T17:02:06.895Z,64.22
2022-10-25T17:05:08.448Z,64.47
2022-10-25T17:08:10.452Z,64.59
2022-10-25T17:11:11.398Z,64.85
2022-10-25T17:14:14.445Z,65.01
2022-10-25T17:17:15.424Z,65.17
2022-10-25T17:20:17.138Z,65.36
2022-10-25T17:23:18.499Z,65.62
2022-10-25T17:26:23.780Z,65.34
2022-10-25T17:29:25.154Z,66.04
2022-10-25T17:32:26.585Z,66.38
2022-10-25T17:35:29.726Z,66.77
2022-10-25T17:38:31.273Z,67.02
2022-10-25T17:41:38.880Z,67.32
2022-10-25T17:44:41.047Z,67.70
2022-10-25T17:47:44.686Z,68.02
2022-10-25T17:50:49.244Z,68.33
2022-10-25T17:53:53.216Z,68.55
2022-10-25T17:56:57.776Z,68.84
2022-10-25T17:59:59.028Z,69.24
2022-10-25T18:03:00.615Z,69.55
2022-10-25T18:06:01.191Z,69.73
2022-10-25T18:09:05.650Z,69.92
2022-10-25T18:12:07.260Z,70.09
2022-10-25T18:15:09.142Z,70.41
2022-10-25T18:18:12.048Z,70.60
2022-10-25T18:21:13.147Z,70.96
2022-10-25T18:24:14.375Z,71.11
2022-10-25T18:27:16.229Z,71.42
2022-10-25T18:30:18.034Z,71.63
2022-10-25T18:33:20.708Z,71.10
2022-10-25T18:36:24.515Z,71.98
2022-10-25T18:39:26.170Z,72.39
2022-10-25T18:42:28.280Z,72.63
2022-10-25T18:45:29.474Z,72.78
2022-10-25T18:48:30.849Z,72.96
2022-10-25T18:51:33.651Z,73.21
2022-10-25T18:54:35.077Z,73.56
2022-10-25T18:57:37.497Z,73.83
2022-10-25T19:00:41.106Z,73.98
2022-10-25T19:03:44.516Z,74.13
2022-10-25T19:06:46.331Z,74.25
2022-10-25T19:09:48.281Z,74.45
2022-10-25T19:12:50.072Z,74.05
2022-10-25T19:15:54.301Z,74.56
2022-10-25T19:18:55.705Z,74.76
2022-10-25T19:21:57.156Z,74.98
2022-10-25T19:28:01.287Z,75.38
2022-10-25T19:31:04.956Z,75.56
2022-10-25T19:34:08.387Z,75.68
2022-10-25T19:37:11.243Z,75.84
2022-10-25T19:40:12.746Z,75.93
2022-10-25T19:43:14.957Z,76.03
2022-10-25T19:46:17.323Z,76.20
2022-10-25T19:49:18.521Z,76.32
2022-10-25T19:52:17.000Z,76.44
2022-10-25T19:55:15.705Z,76.43
2022-10-25T19:58:14.905Z,76.53
2022-10-25T20:01:13.234Z,76.67
2022-10-25T20:04:14.020Z,76.61
2022-10-25T20:07:12.503Z,76.68
2022-10-25T20:10:13.685Z,76.79
2022-10-25T20:13:16.436Z,76.86
2022-10-25T20:16:15.401Z,76.91
2022-10-25T20:19:15.953Z,76.94
2022-10-25T20:22:14.209Z,77.03
2022-10-25T20:25:12.643Z,77.12
2022-10-25T20:28:11.614Z,77.13
2022-10-25T20:31:10.623Z,77.17
2022-10-25T20:34:09.301Z,77.12
2022-10-25T20:37:09.731Z,77.22
2022-10-25T20:40:08.059Z,77.31
2022-10-25T20:43:06.798Z,77.34
2022-10-25T20:46:04.870Z,77.31
2022-10-25T20:49:03.491Z,77.31
2022-10-25T20:52:01.889Z,77.34
2022-10-25T20:55:00.594Z,77.37
2022-10-25T20:57:58.423Z,77.38
2022-10-25T21:00:56.702Z,77.41
2022-10-25T21:03:54.539Z,77.42
2022-10-25T21:06:51.998Z,77.46
2022-10-25T21:09:49.704Z,77.38
2022-10-25T21:12:47.257Z,77.17
2022-10-25T21:15:47.930Z,77.15
2022-10-25T21:18:45.408Z,77.28
2022-10-25T21:21:45.586Z,77.30
2022-10-25T21:24:43.077Z,77.30
2022-10-25T21:27:40.566Z,77.31
2022-10-25T21:30:38.210Z,77.27
2022-10-25T21:33:35.639Z,77.32
2022-10-25T21:36:33.123Z,77.51
2022-10-25T21:39:30.575Z,77.68
2022-10-25T21:42:28.130Z,77.83
2022-10-25T21:45:25.868Z,77.99
2022-10-25T21:48:23.374Z,78.14
2022-10-25T21:51:20.856Z,78.23
2022-10-25T21:54:18.294Z,78.29
2022-10-25T21:57:15.743Z,78.46
2022-10-25T22:00:13.203Z,78.51
2022-10-25T22:03:10.662Z,78.64
2022-10-25T22:06:08.113Z,78.71
2022-10-25T22:09:05.580Z,78.85
2022-10-25T22:12:03.164Z,78.89
2022-10-25T22:15:00.710Z,78.95
2022-10-25T22:17:58.145Z,79.01
2022-10-25T22:20:55.591Z,78.97
2022-10-25T22:23:53.121Z,78.96
2022-10-25T22:26:50.561Z,79.07
2022-10-25T22:29:48.010Z,79.24
2022-10-25T22:32:46.015Z,79.41
2022-10-25T22:35:43.626Z,79.58
2022-10-25T22:38:41.083Z,79.75
2022-10-25T22:41:38.553Z,79.96
2022-10-25T22:44:36.071Z,80.12
2022-10-25T22:47:33.536Z,80.31
2022-10-25T22:50:30.984Z,80.52
2022-10-25T22:53:28.988Z,80.72
2022-10-25T22:56:26.469Z,80.92
2022-10-25T22:59:23.939Z,81.08
2022-10-25T23:02:22.108Z,81.26
2022-10-25T23:05:19.609Z,81.38
2022-10-25T23:08:17.077Z,81.43
2022-10-25T23:11:14.641Z,81.53
2022-10-25T23:14:15.153Z,81.62
2022-10-25T23:17:15.082Z,81.70
2022-10-25T23:20:12.520Z,81.87
2022-10-25T23:23:09.988Z,82.00
2022-10-25T23:29:09.838Z,82.15
2022-10-25T23:32:07.462Z,82.19
2022-10-25T23:35:04.980Z,82.26
2022-10-25T23:38:02.554Z,82.43
2022-10-25T23:40:59.970Z,82.55
2022-10-25T23:43:57.447Z,82.72
2022-10-25T23:46:55.152Z,82.75
2022-10-25T23:49:52.628Z,82.60
2022-10-25T23:52:50.343Z,82.55
2022-10-25T23:55:48.201Z,82.45
2022-10-25T23:58:45.670Z,82.45
